createdAt,value
2022-11-29T00:01:18.402Z,97816.20127456124
2022-11-29T00:04:16.445Z,97812.59511914896
2022-11-29T00:07:16.605Z,97806.33690894755
2022-11-29T00:12:12.482Z,97800.88689643994
2022-11-29T00:14:18.936Z,97798.1416158588
2022-11-29T00:17:16.237Z,97797.42417764533
2022-11-29T00:21:16.782Z,97793.62547564619
2022-11-29T00:24:17.275Z,97791.57744805013
2022-11-29T00:27:17.057Z,97787.29392504811
2022-11-29T00:31:18.235Z,97789.16962869195
2022-11-29T00:34:17.052Z,97793.10823237574
2022-11-29T00:37:17.490Z,97785.60026040867
2022-11-29T00:41:16.974Z,97788.78308365472
2022-11-29T00:44:20.103Z,97780.71305995533
2022-11-29T00:47:17.304Z,97784.88048262613
2022-11-29T00:51:16.428Z,97778.26236920104
2022-11-29T00:54:17.840Z,97774.38984935285
2022-11-29T00:57:18.076Z,97773.31162971647
2022-11-29T01:31:20.421Z,97760.36959089575
2022-11-29T01:34:16.510Z,97762.11804028826
2022-11-29T01:37:16.526Z,97764.1795125448
2022-11-29T01:41:19.273Z,97759.22598441126
2022-11-29T01:45:23.735Z,97760.02083225438
2022-11-29T01:47:18.413Z,97753.89895632677
2022-11-29T01:51:17.595Z,97747.89359097966
2022-11-29T01:54:18.306Z,97747.10101385838
2022-11-29T02:01:17.046Z,97749.65504621751
2022-11-29T02:04:18.179Z,97747.45072450285
2022-11-29T02:07:17.838Z,97738.33390995546
2022-11-29T02:12:07.127Z,97737.67903251787
2022-11-29T02:14:47.237Z,97737.9154886221
2022-11-29T02:31:58.222Z,97726.57591389879
2022-11-29T02:34:35.684Z,97728.40333413021
2022-11-29T02:51:25.373Z,97717.38835308446
2022-11-29T03:11:26.209Z,97714.70289023002
2022-11-29T03:14:25.062Z,97718.80443780134
2022-11-29T03:17:28.859Z,97714.98905658716
2022-11-29T03:21:24.205Z,97711.45960512765
2022-11-29T03:24:25.298Z,97708.20980131277
2022-11-29T03:27:25.926Z,97708.37185837838
2022-11-29T03:31:22.843Z,97702.45165488246
2022-11-29T03:34:24.495Z,97701.11644792512
2022-11-29T03:37:21.059Z,97698.25135914003
2022-11-29T03:41:23.386Z,97695.7840377234
2022-11-29T03:44:20.322Z,97693.46712836035
2022-11-29T03:47:22.942Z,97693.50867288573
2022-11-29T03:51:22.545Z,97692.11450765199
2022-11-29T03:54:24.743Z,97694.62839954445
2022-11-29T03:57:25.006Z,97690.62621632725
2022-11-29T04:01:36.729Z,97691.57983837271
2022-11-29T04:04:59.356Z,97691.01090936086
2022-11-29T04:07:33.675Z,97689.33695948735
2022-11-29T04:11:35.506Z,97685.40507274293
2022-11-29T04:14:33.044Z,97697.90910816714
2022-11-29T04:17:45.957Z,97689.03378177209
2022-11-29T04:21:32.892Z,97691.85299358405
2022-11-29T04:25:35.926Z,97686.6810053553
2022-11-29T04:31:31.368Z,97689.49243663928
2022-11-29T04:34:37.348Z,97689.23421011426
2022-11-29T04:37:41.517Z,97691.78803606667
2022-11-29T04:52:00.100Z,97695.20336289064
2022-11-29T05:01:29.721Z,97705.71306379045
2022-11-29T05:04:24.101Z,97706.97984237358
2022-11-29T05:07:32.349Z,97708.62448932594
2022-11-29T05:11:58.629Z,97707.19647184291
2022-11-29T05:31:28.997Z,97695.16779204234
2022-11-29T05:34:35.233Z,97696.68171648425
2022-11-29T05:41:37.645Z,97682.64799766646
2022-11-29T05:44:25.064Z,97682.77671764798
2022-11-29T05:47:25.670Z,97685.75545138345
2022-11-29T05:51:21.551Z,97679.42564997813
2022-11-29T05:54:27.235Z,97684.39645861331
2022-11-29T05:57:30.087Z,97680.99904635102
2022-11-29T06:01:25.195Z,97680.6926820776
2022-11-29T06:04:32.666Z,97680.50974778412
2022-11-29T06:07:22.222Z,97674.18271016517
2022-11-29T06:11:23.322Z,97677.38871868109
2022-11-29T06:14:40.714Z,97676.48297021975
2022-11-29T06:17:40.593Z,97678.65466520641
2022-11-29T06:21:29.745Z,97677.19559068447
2022-11-29T06:24:32.835Z,97676.17232662796
2022-11-29T06:27:40.572Z,97679.86054155903
2022-11-29T06:41:20.487Z,97670.27793728292
2022-11-29T06:44:17.693Z,97668.06716130963
2022-11-29T06:47:24.782Z,97674.47848841836
2022-11-29T06:51:25.865Z,97677.17705277233
2022-11-29T06:54:36.487Z,97672.76017523551
2022-11-29T06:57:24.053Z,97674.80470195955
2022-11-29T07:01:29.823Z,97671.11092592204
2022-11-29T07:04:36.722Z,97671.52242299188
2022-11-29T07:07:21.270Z,97668.7963597172
2022-11-29T07:11:38.103Z,97664.09532881371
2022-11-29T07:14:37.752Z,97669.41105827164
2022-11-29T07:17:47.450Z,97668.55133360696
2022-11-29T07:21:28.111Z,97668.62448986921
2022-11-29T07:24:31.776Z,97665.14517224664
2022-11-29T07:27:22.119Z,97670.73116845943
2022-11-29T07:31:23.455Z,97673.5143208759
2022-11-29T07:34:24.920Z,97670.13843508325
2022-11-29T07:37:26.751Z,97667.64291107064
2022-11-29T07:41:26.898Z,97668.14007012697
2022-11-29T07:44:23.286Z,97671.13083059693
2022-11-29T07:47:16.783Z,97667.58604290406
2022-11-29T07:51:16.880Z,97673.1970007512
2022-11-29T07:54:18.713Z,97663.42567231026
2022-11-29T07:57:17.358Z,97667.8153883527
2022-11-29T08:01:16.606Z,97662.88659920538
2022-11-29T08:04:16.986Z,97662.64005127677
2022-11-29T08:07:16.880Z,97662.07282472045
2022-11-29T08:11:16.615Z,97670.03415496292
2022-11-29T08:14:17.047Z,97668.42413325822
2022-11-29T08:17:16.930Z,97673.74487726715
2022-11-29T08:21:18.586Z,97671.03835508783
2022-11-29T08:24:16.740Z,97674.96407482601
2022-11-29T08:27:16.429Z,97677.55211212256
2022-11-29T08:31:16.424Z,97670.57626618037
2022-11-29T08:34:16.475Z,97672.01490216474
2022-11-29T08:37:16.485Z,97669.29262975734
2022-11-29T08:41:17.061Z,97670.52346211065
2022-11-29T08:44:16.876Z,97672.72990832379
2022-11-29T08:47:49.070Z,97673.95074694305
2022-11-29T08:51:16.569Z,97680.41983637627
2022-11-29T08:54:16.800Z,97681.66747176163
2022-11-29T08:57:39.239Z,97682.61398390787
2022-11-29T09:01:18.222Z,97679.45948903194
2022-11-29T09:04:17.313Z,97677.25938702036
2022-11-29T09:07:17.058Z,97681.50967362731
2022-11-29T09:11:18.426Z,97678.92816095178
2022-11-29T09:14:17.171Z,97677.76943308828
2022-11-29T09:17:16.773Z,97679.0749893207
2022-11-29T09:21:16.696Z,97679.92103576071
2022-11-29T09:24:16.762Z,97686.39773411506
2022-11-29T09:27:16.790Z,97684.01332029316
2022-11-29T09:31:16.710Z,97684.05921113137
2022-11-29T09:34:16.933Z,97680.10965239945
2022-11-29T09:37:16.571Z,97675.83851237694
2022-11-29T09:41:41.124Z,97672.97850232388
2022-11-29T09:44:24.857Z,97672.53666463248
2022-11-29T09:51:26.464Z,97664.40622982176
2022-11-29T10:11:29.122Z,97638.65872676049
2022-11-29T10:14:29.162Z,97634.20516491013
2022-11-29T10:17:30.957Z,97619.85787789221
2022-11-29T10:41:22.029Z,97599.652469169
2022-11-29T10:44:17.033Z,97595.48128190367
2022-11-29T10:47:17.164Z,97591.52834929929
2022-11-29T10:51:17.674Z,97587.12363349694
2022-11-29T10:54:31.005Z,97581.80005626833
2022-11-29T10:57:19.537Z,97577.97227103268
2022-11-29T11:01:16.969Z,97576.88323653155
2022-11-29T11:04:26.675Z,97571.58891244141
2022-11-29T11:07:28.515Z,97569.04830983872
2022-11-29T11:11:25.160Z,97562.57848173236
2022-11-29T11:14:21.190Z,97564.18913279957
2022-11-29T11:17:23.265Z,97562.3390521645
2022-11-29T11:21:19.975Z,97558.53505848999
2022-11-29T11:24:24.002Z,97558.05316937044
2022-11-29T11:27:29.667Z,97552.79938314417
2022-11-29T11:31:26.903Z,97558.42917589049
2022-11-29T11:34:28.296Z,97557.49489588443
2022-11-29T11:37:20.660Z,97552.1085640603
2022-11-29T11:41:20.738Z,97543.97662108789
2022-11-29T11:44:46.483Z,97546.27766712209
2022-11-29T11:51:22.315Z,97542.47615725928
2022-11-29T11:54:16.902Z,97539.1993957609
2022-11-29T11:57:18.135Z,97538.43066798765
2022-11-29T12:01:24.985Z,97535.91266103796
2022-11-29T12:04:21.307Z,97535.95240392837
2022-11-29T12:07:45.173Z,97533.89709721756
2022-11-29T12:11:19.142Z,97533.70929653283
2022-11-29T12:14:25.604Z,97531.93009512802
2022-11-29T12:17:22.123Z,97535.7657494027
2022-11-29T12:21:23.379Z,97533.4922734122
2022-11-29T12:24:22.749Z,97535.6400421312
2022-11-29T12:27:16.800Z,97533.93838878871
2022-11-29T12:31:39.070Z,97533.05054782347
2022-11-29T12:34:35.615Z,97531.8907784162
2022-11-29T12:37:24.299Z,97530.45168292493
2022-11-29T12:41:32.565Z,97531.55979203084
2022-11-29T12:44:28.753Z,97529.57117899372
2022-11-29T12:47:35.835Z,97526.29832470445
2022-11-29T13:01:28.945Z,97507.19455652885
2022-11-29T13:04:25.912Z,97509.33497914397
2022-11-29T13:07:28.775Z,97503.63255318155
2022-11-29T13:11:21.746Z,97505.45664393024
2022-11-29T13:14:42.799Z,97502.19769254934
2022-11-29T13:17:29.669Z,97504.73812027472
2022-11-29T13:31:19.137Z,97506.9984935507
2022-11-29T13:34:23.095Z,97507.34756716715
2022-11-29T13:37:23.142Z,97502.9386002229
2022-11-29T13:41:28.157Z,97496.12042425726
2022-11-29T13:44:26.803Z,97499.02224149302
2022-11-29T13:47:18.309Z,97499.75828437829
2022-11-29T13:51:28.835Z,97496.92739109938
2022-11-29T13:54:33.234Z,97491.1652171214
2022-11-29T13:57:17.303Z,97493.54583564718
2022-11-29T14:01:16.163Z,97492.70853217701
2022-11-29T14:04:26.997Z,97499.48502703423
2022-11-29T14:07:19.769Z,97496.98571082977
2022-11-29T14:11:22.053Z,97491.39174975628
2022-11-29T14:14:25.221Z,97490.92730881061
2022-11-29T14:18:08.979Z,97487.10248365966
2022-11-29T14:21:16.758Z,97485.27198110016
2022-11-29T14:24:55.988Z,97485.86983050058
2022-11-29T14:31:48.748Z,97484.47772840118
2022-11-29T14:34:30.950Z,97487.65070179995
2022-11-29T14:37:33.037Z,97489.01700583973
2022-11-29T14:41:26.657Z,97490.16734507993
2022-11-29T14:44:21.065Z,97487.34846050106
2022-11-29T14:47:23.754Z,97489.32198686888
2022-11-29T14:51:18.883Z,97491.7010280164
2022-11-29T14:54:19.644Z,97491.3665482235
2022-11-29T14:58:21.577Z,97496.674761227
2022-11-29T15:01:18.080Z,97492.60302761584
2022-11-29T15:04:17.189Z,97491.19077641392
2022-11-29T15:07:23.146Z,97493.69910496572
2022-11-29T15:11:30.807Z,97497.20872889322
2022-11-29T15:14:25.849Z,97492.39900976715
2022-11-29T15:17:26.355Z,97498.29751235658
2022-11-29T15:21:27.998Z,97496.05375188928
2022-11-29T15:24:17.644Z,97493.49700340108
2022-11-29T15:27:19.210Z,97495.83814334615
2022-11-29T15:31:19.546Z,97499.92122958195
2022-11-29T15:34:20.530Z,97498.74961716801
2022-11-29T15:37:22.299Z,97500.22954118188
2022-11-29T15:41:19.790Z,97501.75191989291
2022-11-29T15:44:21.582Z,97500.71813763116
2022-11-29T15:47:21.547Z,97493.48783866205
2022-11-29T15:51:23.524Z,97492.3044215276
2022-11-29T15:54:22.278Z,97495.08012193351
2022-11-29T15:57:23.016Z,97496.12983070454
2022-11-29T16:01:20.184Z,97495.32548099963
2022-11-29T18:01:23.340Z,97518.06707416059
2022-11-29T18:04:21.312Z,97522.81440236299
2022-11-29T18:07:20.902Z,97518.92191837082
2022-11-29T18:11:17.870Z,97521.16210182213
2022-11-29T18:14:18.747Z,97524.25154499445
2022-11-29T18:17:17.095Z,97517.00712684268
2022-11-29T18:21:16.204Z,97520.46422557981
2022-11-29T18:24:17.388Z,97521.9268293861
2022-11-29T18:27:16.998Z,97522.01503197031
2022-11-29T18:31:18.321Z,97526.92399067064
2022-11-29T18:34:16.550Z,97522.45260492414
2022-11-29T18:37:32.826Z,97521.29653452142
2022-11-29T18:41:19.289Z,97522.36794825709
2022-11-29T18:44:18.891Z,97519.38800223816
2022-11-29T18:47:16.832Z,97519.43522297805
2022-11-29T18:51:18.371Z,97518.96213862023
2022-11-29T18:54:18.345Z,97522.24760389254
2022-11-29T19:11:20.191Z,97522.47389987172
2022-11-29T19:31:21.776Z,97526.08762446306
2022-11-29T20:41:32.162Z,97529.20845917694
2022-11-29T22:01:19.277Z,97494.67750594679
2022-11-29T22:04:16.356Z,97497.24794479944
2022-11-29T22:07:16.521Z,97501.43332343861
2022-11-29T22:11:18.767Z,97500.02844659546
2022-11-29T22:14:18.657Z,97503.5410296693
2022-11-29T22:17:16.925Z,97503.94773703406
2022-11-29T22:21:16.268Z,97498.32804995445
2022-11-29T22:41:18.301Z,97496.80402002319
